createdAt,value
2022-09-25T00:02:23.385Z,6.32
2022-09-25T00:05:09.094Z,5.45
2022-09-25T00:07:56.545Z,4.78
2022-09-25T00:10:43.670Z,4.75
2022-09-25T00:13:28.872Z,5.60
2022-09-25T00:16:17.092Z,4.32
2022-09-25T00:19:21.441Z,6.32
2022-09-25T00:22:06.853Z,5.45
2022-09-25T00:24:52.335Z,4.43
2022-09-25T00:27:37.800Z,4.30
2022-09-25T00:30:23.940Z,3.95
2022-09-25T00:33:09.263Z,4.57
2022-09-25T00:35:54.886Z,6.00
2022-09-25T00:38:40.020Z,4.40
2022-09-25T00:41:27.753Z,6.43
2022-09-25T00:44:56.629Z,3.28
2022-09-25T00:47:54.496Z,2.90
2022-09-25T00:50:50.792Z,3.08
2022-09-25T00:53:40.907Z,3.55
2022-09-25T00:56:29.660Z,3.25
2022-09-25T00:59:18.970Z,4.18
2022-09-25T01:02:04.673Z,2.92
2022-09-25T01:04:51.413Z,3.00
2022-09-25T01:07:40.512Z,4.93
2022-09-25T01:10:26.655Z,4.03
2022-09-25T01:13:13.430Z,4.40
2022-09-25T01:16:18.534Z,3.33
2022-09-25T01:19:20.906Z,2.33
2022-09-25T01:22:09.479Z,4.38
2022-09-25T01:25:15.196Z,2.90
2022-09-25T01:28:03.333Z,4.43
2022-09-25T01:30:55.821Z,5.07
2022-09-25T01:33:47.164Z,5.15
2022-09-25T01:36:41.759Z,7.57
2022-09-25T01:39:43.208Z,4.93
2022-09-25T01:42:36.540Z,5.68
2022-09-25T01:45:33.041Z,5.22
2022-09-25T01:48:22.956Z,4.38
2022-09-25T01:51:20.050Z,6.18
2022-09-25T01:54:14.211Z,3.97
2022-09-25T01:57:07.265Z,3.85
2022-09-25T02:00:06.477Z,5.18
2022-09-25T02:03:12.137Z,3.30
2022-09-25T02:06:02.387Z,3.28
2022-09-25T02:08:57.532Z,2.97
2022-09-25T02:11:48.593Z,5.03
2022-09-25T02:14:39.169Z,3.13
2022-09-25T02:17:52.789Z,3.47
2022-09-25T02:20:42.420Z,6.55
2022-09-25T02:23:39.280Z,3.85
2022-09-25T02:26:33.980Z,2.80
2022-09-25T02:29:20.019Z,4.15
2022-09-25T02:32:18.981Z,6.20
2022-09-25T02:35:04.496Z,2.95
2022-09-25T02:37:50.417Z,3.85
2022-09-25T02:40:45.991Z,2.55
2022-09-25T02:43:54.837Z,4.13
2022-09-25T02:47:08.682Z,2.17
2022-09-25T02:49:59.974Z,4.15
2022-09-25T02:52:58.749Z,1.85
2022-09-25T02:55:48.319Z,2.47
2022-09-25T02:58:53.164Z,2.33
2022-09-25T03:01:42.051Z,2.97
2022-09-25T03:04:29.462Z,3.70
2022-09-25T03:07:17.391Z,2.60
2022-09-25T03:10:04.547Z,2.50
2022-09-25T03:12:50.411Z,3.03
2022-09-25T03:15:37.048Z,2.38
2022-09-25T03:18:22.898Z,2.67
2022-09-25T03:21:07.878Z,2.80
2022-09-25T03:23:53.600Z,3.85
2022-09-25T03:26:40.436Z,6.30
2022-09-25T03:29:25.937Z,7.28
2022-09-25T03:32:11.350Z,3.67
2022-09-25T03:34:56.734Z,6.75
2022-09-25T03:37:42.218Z,6.30
2022-09-25T03:40:27.925Z,6.40
2022-09-25T03:45:57.851Z,4.68
2022-09-25T03:48:42.907Z,5.60
2022-09-25T03:51:30.766Z,3.72
2022-09-25T03:54:15.981Z,3.28
2022-09-25T03:57:02.164Z,4.63
2022-09-25T03:59:47.175Z,4.03
2022-09-25T04:02:32.890Z,3.00
2022-09-25T04:05:18.903Z,2.88
2022-09-25T04:08:04.744Z,3.05
2022-09-25T04:10:50.029Z,3.70
2022-09-25T04:13:37.377Z,3.95
2022-09-25T04:16:23.081Z,4.63
2022-09-25T04:19:08.632Z,6.40
2022-09-25T04:21:54.107Z,4.15
2022-09-25T04:24:48.481Z,2.58
2022-09-25T04:27:33.675Z,4.97
2022-09-25T04:30:20.664Z,3.97
2022-09-25T04:33:24.337Z,3.47
2022-09-25T04:36:09.836Z,2.28
2022-09-25T04:38:55.270Z,4.88
2022-09-25T04:41:41.671Z,4.60
2022-09-25T04:44:27.642Z,3.58
2022-09-25T04:47:13.305Z,4.43
2022-09-25T04:49:58.562Z,3.88
2022-09-25T04:52:44.203Z,2.58
2022-09-25T04:55:29.782Z,2.67
2022-09-25T04:58:15.012Z,5.15
2022-09-25T05:01:09.242Z,2.88
2022-09-25T05:03:54.847Z,4.60
2022-09-25T05:06:40.279Z,4.18
2022-09-25T05:09:25.805Z,4.00
2022-09-25T05:12:11.298Z,2.97
2022-09-25T05:14:56.775Z,3.70
2022-09-25T05:17:42.325Z,2.67
2022-09-25T05:20:28.097Z,2.55
2022-09-25T05:23:14.237Z,4.25
2022-09-25T05:26:02.528Z,4.75
2022-09-25T05:28:50.465Z,5.28
2022-09-25T05:31:36.662Z,4.13
2022-09-25T05:34:22.128Z,3.53
2022-09-25T05:37:07.796Z,3.50
2022-09-25T05:39:53.151Z,3.45
2022-09-25T05:42:39.626Z,2.65
2022-09-25T05:45:24.814Z,2.35
2022-09-25T05:48:10.918Z,2.35
2022-09-25T05:50:57.392Z,2.30
2022-09-25T05:53:43.196Z,3.58
2022-09-25T05:56:28.393Z,2.40
2022-09-25T05:59:14.166Z,2.28
2022-09-25T06:01:59.320Z,4.05
2022-09-25T06:04:45.163Z,2.03
2022-09-25T06:07:30.318Z,2.22
2022-09-25T06:10:16.153Z,2.78
2022-09-25T06:13:04.779Z,2.47
2022-09-25T06:15:52.431Z,2.05
2022-09-25T06:18:37.665Z,2.25
2022-09-25T06:21:23.488Z,1.38
2022-09-25T06:24:09.768Z,2.45
2022-09-25T06:26:55.697Z,2.38
2022-09-25T06:29:41.049Z,2.85
2022-09-25T06:32:26.449Z,2.53
2022-09-25T06:35:11.735Z,1.90
2022-09-25T06:37:58.686Z,1.75
2022-09-25T06:40:45.338Z,2.40
2022-09-25T06:43:31.241Z,1.75
2022-09-25T06:46:18.216Z,1.85
2022-09-25T06:49:03.742Z,2.80
2022-09-25T06:51:50.985Z,2.20
2022-09-25T06:54:39.443Z,3.42
2022-09-25T06:57:28.878Z,1.73
2022-09-25T07:00:14.429Z,2.30
2022-09-25T07:03:18.991Z,2.67
2022-09-25T07:06:07.391Z,3.78
2022-09-25T07:08:52.733Z,2.50
2022-09-25T07:11:38.194Z,2.53
2022-09-25T07:14:23.758Z,2.35
2022-09-25T07:17:09.443Z,2.55
2022-09-25T07:19:55.028Z,2.97
2022-09-25T07:22:41.169Z,2.42
2022-09-25T07:25:26.485Z,2.13
2022-09-25T07:28:14.088Z,3.22
2022-09-25T07:30:59.353Z,2.55
2022-09-25T07:33:45.469Z,2.60
2022-09-25T07:36:30.930Z,4.15
2022-09-25T07:39:18.662Z,1.83
2022-09-25T07:42:04.353Z,1.75
2022-09-25T07:44:50.090Z,1.98
2022-09-25T07:47:35.644Z,2.30
2022-09-25T07:50:21.501Z,1.70
2022-09-25T07:53:06.764Z,1.73
2022-09-25T07:55:52.041Z,1.88
2022-09-25T07:58:38.790Z,1.88
2022-09-25T08:01:24.252Z,1.55
2022-09-25T08:04:09.520Z,2.80
2022-09-25T08:06:55.313Z,2.75
2022-09-25T08:09:40.526Z,2.85
2022-09-25T08:12:25.686Z,1.85
2022-09-25T08:15:11.350Z,2.78
2022-09-25T08:17:56.535Z,2.05
2022-09-25T08:20:42.003Z,1.75
2022-09-25T08:23:28.072Z,1.83
2022-09-25T08:26:13.858Z,2.20
2022-09-25T08:29:00.238Z,2.45
2022-09-25T08:31:45.449Z,2.80
2022-09-25T08:34:47.707Z,2.20
2022-09-25T08:40:20.786Z,1.73
2022-09-25T08:43:08.157Z,2.05
2022-09-25T08:46:13.730Z,1.75
2022-09-25T08:49:02.504Z,2.33
2022-09-25T08:51:51.446Z,2.15
2022-09-25T08:54:39.957Z,1.98
2022-09-25T08:57:44.082Z,2.80
2022-09-25T09:00:30.888Z,2.92
2022-09-25T09:03:17.192Z,2.42
2022-09-25T09:06:10.538Z,2.08
2022-09-25T09:09:02.046Z,2.97
2022-09-25T09:11:57.822Z,3.13
2022-09-25T09:14:58.691Z,2.83
2022-09-25T09:17:44.060Z,1.83
2022-09-25T09:20:48.892Z,2.03
2022-09-25T09:23:43.919Z,2.00
2022-09-25T09:26:43.704Z,2.03
2022-09-25T09:29:41.201Z,2.03
2022-09-25T09:32:42.482Z,1.55
2022-09-25T09:35:34.373Z,2.85
2022-09-25T09:38:57.467Z,1.92
2022-09-25T09:42:04.385Z,1.27
2022-09-25T09:45:05.016Z,2.03
2022-09-25T09:47:57.196Z,2.17
2022-09-25T09:50:53.175Z,1.95
2022-09-25T09:53:56.932Z,2.58
2022-09-25T09:56:46.160Z,2.15
2022-09-25T10:00:04.378Z,3.15
2022-09-25T10:03:03.249Z,2.08
2022-09-25T10:05:50.604Z,1.45
2022-09-25T10:08:36.413Z,2.35
2022-09-25T10:11:22.768Z,1.23
2022-09-25T10:14:21.204Z,1.20
2022-09-25T10:17:11.383Z,1.35
2022-09-25T10:20:00.980Z,2.35
2022-09-25T10:22:47.065Z,1.38
2022-09-25T10:25:40.380Z,1.55
2022-09-25T10:28:32.425Z,1.70
2022-09-25T10:31:19.575Z,2.03
2022-09-25T10:34:27.455Z,1.33
2022-09-25T10:37:19.678Z,1.55
2022-09-25T10:40:08.427Z,2.75
2022-09-25T10:43:04.752Z,1.85
2022-09-25T10:46:05.176Z,1.92
2022-09-25T10:49:31.532Z,2.10
2022-09-25T10:52:19.580Z,1.33
2022-09-25T10:55:21.603Z,1.42
2022-09-25T10:58:31.405Z,1.65
2022-09-25T11:01:17.891Z,1.48
2022-09-25T11:04:13.111Z,1.77
2022-09-25T11:07:07.117Z,2.35
2022-09-25T11:09:56.243Z,1.63
2022-09-25T11:12:45.377Z,1.63
2022-09-25T11:15:30.645Z,1.67
2022-09-25T11:18:36.602Z,3.03
2022-09-25T11:21:33.524Z,1.58
2022-09-25T11:24:50.769Z,3.92
2022-09-25T11:27:47.512Z,2.83
2022-09-25T11:30:42.186Z,1.88
2022-09-25T11:33:50.245Z,1.95
2022-09-25T11:36:39.815Z,1.85
2022-09-25T11:39:57.390Z,3.25
2022-09-25T11:43:07.931Z,2.40
2022-09-25T11:46:07.433Z,1.60
2022-09-25T11:49:22.533Z,2.17
2022-09-25T11:52:26.713Z,2.70
2022-09-25T11:55:49.403Z,1.20
2022-09-25T11:58:39.510Z,2.15
2022-09-25T12:01:36.733Z,1.95
2022-09-25T12:04:53.150Z,1.73
2022-09-25T12:08:18.270Z,2.33
2022-09-25T12:11:24.077Z,2.40
2022-09-25T12:14:33.489Z,1.30
2022-09-25T12:17:37.311Z,1.05
2022-09-25T12:20:29.810Z,1.33
2022-09-25T12:23:30.929Z,1.45
2022-09-25T12:26:30.957Z,1.48
2022-09-25T12:29:49.065Z,1.05
2022-09-25T12:32:47.528Z,1.40
2022-09-25T12:35:51.668Z,1.00
2022-09-25T12:38:44.353Z,1.23
2022-09-25T12:41:47.196Z,1.77
2022-09-25T12:44:44.948Z,1.33
2022-09-25T12:47:40.381Z,2.13
2022-09-25T12:50:31.352Z,1.45
2022-09-25T12:53:38.141Z,2.30
2022-09-25T12:56:30.185Z,2.20
2022-09-25T13:02:26.461Z,2.45
2022-09-25T13:05:33.887Z,2.20
2022-09-25T13:08:52.806Z,2.30
2022-09-25T13:11:45.382Z,1.75
2022-09-25T13:14:40.011Z,1.98
2022-09-25T13:17:25.290Z,1.20
2022-09-25T13:20:36.249Z,1.77
2022-09-25T13:23:21.332Z,1.25
2022-09-25T13:26:27.660Z,1.85
2022-09-25T13:29:35.480Z,1.63
2022-09-25T13:32:23.319Z,3.58
2022-09-25T13:35:19.781Z,1.58
2022-09-25T13:38:35.407Z,1.90
2022-09-25T13:41:20.969Z,1.77
2022-09-25T13:44:43.652Z,1.65
2022-09-25T13:47:38.424Z,3.42
2022-09-25T13:50:31.617Z,2.03
2022-09-25T13:53:23.682Z,3.15
2022-09-25T13:56:14.068Z,2.22
2022-09-25T13:59:15.498Z,2.55
2022-09-25T14:02:37.142Z,1.65
2022-09-25T14:05:27.005Z,1.23
2022-09-25T14:08:16.299Z,1.77
2022-09-25T14:11:05.394Z,1.27
2022-09-25T14:13:52.612Z,1.60
2022-09-25T14:16:48.036Z,1.52
2022-09-25T14:19:39.583Z,1.35
2022-09-25T14:22:43.080Z,1.42
2022-09-25T14:25:37.526Z,1.42
2022-09-25T14:28:25.490Z,1.73
2022-09-25T14:31:14.578Z,1.70
2022-09-25T14:34:33.048Z,1.20
2022-09-25T14:37:36.996Z,1.60
2022-09-25T14:40:33.682Z,1.38
2022-09-25T14:43:57.022Z,1.20
2022-09-25T14:46:43.101Z,1.50
2022-09-25T14:49:33.817Z,1.38
2022-09-25T14:52:25.481Z,1.38
2022-09-25T14:55:16.455Z,1.40
2022-09-25T14:58:02.829Z,1.92
2022-09-25T15:00:52.712Z,1.98
2022-09-25T15:03:43.184Z,2.55
2022-09-25T15:06:31.679Z,2.33
2022-09-25T15:09:30.681Z,1.95
2022-09-25T15:12:34.078Z,2.20
2022-09-25T15:15:21.541Z,1.63
2022-09-25T15:18:13.696Z,1.98
2022-09-25T15:23:46.784Z,2.30
2022-09-25T15:26:33.277Z,1.38
2022-09-25T15:29:22.450Z,2.35
2022-09-25T15:32:17.961Z,1.63
2022-09-25T15:35:23.642Z,1.90
2022-09-25T15:38:13.745Z,1.65
2022-09-25T15:40:59.743Z,2.35
2022-09-25T15:43:45.173Z,1.50
2022-09-25T15:46:38.036Z,1.70
2022-09-25T15:49:40.481Z,2.95
2022-09-25T15:52:32.508Z,2.15
2022-09-25T15:55:17.978Z,1.85
2022-09-25T15:58:12.966Z,1.50
2022-09-25T16:01:22.026Z,2.25
2022-09-25T16:04:35.296Z,2.33
2022-09-25T16:07:24.723Z,1.80
2022-09-25T16:10:10.232Z,1.33
2022-09-25T16:12:55.636Z,1.45
2022-09-25T16:15:48.269Z,1.77
2022-09-25T16:18:40.569Z,1.92
2022-09-25T16:21:31.750Z,1.50
2022-09-25T16:24:28.985Z,1.67
2022-09-25T16:27:24.211Z,1.50
2022-09-25T16:30:20.635Z,1.85
2022-09-25T16:33:27.055Z,2.17
2022-09-25T16:36:18.336Z,1.67
2022-09-25T16:39:10.079Z,1.43
2022-09-25T16:41:56.554Z,3.33
2022-09-25T16:44:46.817Z,3.05
2022-09-25T16:47:34.157Z,4.22
2022-09-25T16:50:21.359Z,1.80
2022-09-25T16:53:06.940Z,2.25
2022-09-25T16:55:53.213Z,2.03
2022-09-25T16:58:38.316Z,3.25
2022-09-25T17:01:26.711Z,2.47
2022-09-25T17:04:15.565Z,1.80
2022-09-25T17:07:01.865Z,4.40
2022-09-25T17:09:47.674Z,1.95
2022-09-25T17:12:34.171Z,2.90
2022-09-25T17:15:23.694Z,1.60
2022-09-25T17:18:21.174Z,2.03
2022-09-25T17:21:13.641Z,2.63
2022-09-25T17:23:59.054Z,1.85
2022-09-25T17:26:45.213Z,1.95
2022-09-25T17:29:31.144Z,1.77
2022-09-25T17:32:18.942Z,1.60
2022-09-25T17:35:22.588Z,1.70
2022-09-25T17:38:08.195Z,1.60
2022-09-25T17:40:58.491Z,1.40
2022-09-25T17:43:45.649Z,1.73
2022-09-25T17:46:33.734Z,1.85
2022-09-25T17:49:19.129Z,1.48
2022-09-25T17:52:05.089Z,1.95
2022-09-25T17:54:50.338Z,1.55
2022-09-25T17:57:35.943Z,1.65
2022-09-25T18:00:21.298Z,1.45
2022-09-25T18:03:07.593Z,1.73
2022-09-25T18:05:53.247Z,1.80
2022-09-25T18:08:38.751Z,1.40
2022-09-25T18:11:25.525Z,2.50
2022-09-25T18:14:15.517Z,2.47
2022-09-25T18:17:00.614Z,2.20
2022-09-25T18:20:04.702Z,1.90
2022-09-25T18:22:50.034Z,2.08
2022-09-25T18:25:38.820Z,1.50
2022-09-25T18:28:23.859Z,2.38
2022-09-25T18:31:09.614Z,2.65
2022-09-25T18:33:55.297Z,2.00
2022-09-25T18:36:40.898Z,2.65
2022-09-25T18:39:26.425Z,2.30
2022-09-25T18:42:11.635Z,2.88
2022-09-25T18:44:56.977Z,2.58
2022-09-25T18:47:42.812Z,3.05
2022-09-25T18:50:29.296Z,2.83
2022-09-25T18:53:15.784Z,2.95
2022-09-25T18:56:01.224Z,2.35
2022-09-25T18:58:47.553Z,2.42
2022-09-25T19:01:36.893Z,2.10
2022-09-25T19:04:22.775Z,2.33
2022-09-25T19:07:07.836Z,2.80
2022-09-25T19:09:54.064Z,2.00
2022-09-25T19:12:39.236Z,2.67
2022-09-25T19:15:24.879Z,2.13
2022-09-25T19:18:10.737Z,2.25
2022-09-25T19:20:56.373Z,2.70
2022-09-25T19:23:43.087Z,2.30
2022-09-25T19:26:28.355Z,2.78
2022-09-25T19:29:13.875Z,1.98
2022-09-25T19:31:59.345Z,2.33
2022-09-25T19:34:44.944Z,2.90
2022-09-25T19:37:32.827Z,3.65
2022-09-25T19:40:36.502Z,2.85
2022-09-25T19:43:22.386Z,2.67
2022-09-25T19:46:08.124Z,2.67
2022-09-25T19:48:53.350Z,3.60
2022-09-25T19:51:39.040Z,2.22
2022-09-25T19:54:24.757Z,1.85
2022-09-25T19:57:10.411Z,2.47
2022-09-25T19:59:55.577Z,2.03
2022-09-25T20:02:45.544Z,2.25
2022-09-25T20:05:30.851Z,2.83
2022-09-25T20:08:16.333Z,1.45
2022-09-25T20:11:09.973Z,2.20
2022-09-25T20:13:56.307Z,2.47
2022-09-25T20:16:41.729Z,2.25
2022-09-25T20:19:27.352Z,2.03
2022-09-25T20:22:12.837Z,2.15
2022-09-25T20:24:58.747Z,1.70
2022-09-25T20:27:48.817Z,3.20
2022-09-25T20:30:35.545Z,1.98
2022-09-25T20:33:20.798Z,1.80
2022-09-25T20:36:08.622Z,2.15
2022-09-25T20:38:55.531Z,2.65
2022-09-25T20:41:40.896Z,2.33
2022-09-25T20:44:26.377Z,2.25
2022-09-25T20:47:11.711Z,2.20
2022-09-25T20:49:57.446Z,2.15
2022-09-25T20:52:44.190Z,2.08
2022-09-25T20:55:29.638Z,2.67
2022-09-25T20:58:15.077Z,2.50
2022-09-25T21:01:08.041Z,2.35
2022-09-25T21:03:54.137Z,1.65
2022-09-25T21:06:41.466Z,1.65
2022-09-25T21:09:27.093Z,3.75
2022-09-25T21:12:12.981Z,1.85
2022-09-25T21:14:58.348Z,2.83
2022-09-25T21:17:43.981Z,2.00
2022-09-25T21:20:29.359Z,2.38
2022-09-25T21:23:14.879Z,2.30
2022-09-25T21:26:10.151Z,2.55
2022-09-25T21:28:57.828Z,2.05
2022-09-25T21:31:48.982Z,2.10
2022-09-25T21:34:35.298Z,3.20
2022-09-25T21:37:20.674Z,1.90
2022-09-25T21:40:06.681Z,2.03
2022-09-25T21:42:51.791Z,2.05
2022-09-25T21:45:37.544Z,3.13
2022-09-25T21:48:22.809Z,2.85
2022-09-25T21:51:08.597Z,1.70
2022-09-25T21:53:54.851Z,2.00
2022-09-25T21:56:41.270Z,2.40
2022-09-25T21:59:26.717Z,3.15
2022-09-25T22:02:12.424Z,2.78
2022-09-25T22:04:57.536Z,3.08
2022-09-25T22:07:43.147Z,2.28
2022-09-25T22:10:28.497Z,2.30
2022-09-25T22:13:14.540Z,1.58
2022-09-25T22:16:07.785Z,2.50
2022-09-25T22:18:59.357Z,2.15
2022-09-25T22:21:46.608Z,2.20
2022-09-25T22:24:31.997Z,2.85
2022-09-25T22:27:17.182Z,2.28
2022-09-25T22:30:02.417Z,1.30
2022-09-25T22:32:47.631Z,2.22
2022-09-25T22:35:33.103Z,2.03
2022-09-25T22:38:18.451Z,2.40
2022-09-25T22:41:06.777Z,2.08
2022-09-25T22:43:53.934Z,2.60
2022-09-25T22:46:39.154Z,2.03
2022-09-25T22:49:24.536Z,1.80
2022-09-25T22:52:10.004Z,2.42
2022-09-25T22:54:55.501Z,2.50
2022-09-25T22:57:40.874Z,1.90
2022-09-25T23:00:26.220Z,2.90
2022-09-25T23:03:11.961Z,1.98
2022-09-25T23:06:00.374Z,2.10
2022-09-25T23:08:51.505Z,1.88
2022-09-25T23:11:36.712Z,2.70
2022-09-25T23:14:26.360Z,2.28
2022-09-25T23:17:11.639Z,2.50
2022-09-25T23:19:57.057Z,2.80
2022-09-25T23:22:42.454Z,3.65
2022-09-25T23:25:27.918Z,2.08
2022-09-25T23:28:13.769Z,2.67
2022-09-25T23:31:08.302Z,2.47
2022-09-25T23:33:53.973Z,2.42
2022-09-25T23:36:39.794Z,2.38
2022-09-25T23:39:25.009Z,4.15
2022-09-25T23:42:10.391Z,2.15
2022-09-25T23:44:55.844Z,2.78
2022-09-25T23:47:41.298Z,3.03
2022-09-25T23:50:26.645Z,2.58
2022-09-25T23:53:12.261Z,2.38
2022-09-25T23:55:57.408Z,2.42
2022-09-25T23:58:43.678Z,2.42
